Time;durP1;ratioP1;P1;durP2;ratioP2;P2;SDS_P1;SDS_P2;PMS_P1;PMS_P2;Temp;Humidity;BMP_temperature;BMP_pressure;BME280_temperature;BME280_humidity;BME280_pressure;Samples;Min_cycle;Max_cycle;Signal;HPM_P1;HPM_P2
2021/12/04 00:00:38;;;;;;;5.03;3.97;;;3.60;99.90;;;;;;4992507;28;20038;-53
2021/12/04 00:03:04;;;;;;;5.35;4.60;;;3.60;99.90;;;;;;4993216;28;20050;-49
2021/12/04 00:05:30;;;;;;;7.70;4.45;;;3.70;99.90;;;;;;4991923;28;20027;-55
2021/12/04 00:07:56;;;;;;;4.50;4.00;;;3.60;99.90;;;;;;4993055;28;20022;-55
2021/12/04 00:10:28;;;;;;;10.63;4.78;;;3.70;99.90;;;;;;4992370;28;20022;-54
2021/12/04 00:12:54;;;;;;;6.57;4.32;;;3.70;99.90;;;;;;4991750;28;20027;-54
2021/12/04 00:15:19;;;;;;;6.45;3.97;;;3.70;99.90;;;;;;4992511;28;20400;-49
2021/12/04 00:17:45;;;;;;;4.93;3.83;;;3.60;99.90;;;;;;4993666;28;20022;-48
2021/12/04 00:20:11;;;;;;;4.70;3.47;;;3.60;99.90;;;;;;4993160;28;20181;-53
2021/12/04 00:22:38;;;;;;;10.35;4.78;;;3.60;99.90;;;;;;5008466;28;20507;-52
2021/12/04 00:25:04;;;;;;;3.85;3.35;;;3.60;99.90;;;;;;4993328;28;20030;-51
2021/12/04 00:27:30;;;;;;;9.73;3.83;;;3.50;99.90;;;;;;4992987;28;20463;-53
2021/12/04 00:29:57;;;;;;;5.28;3.78;;;3.60;99.90;;;;;;4992765;28;20105;-56
2021/12/04 00:32:35;;;;;;;6.00;3.95;;;3.50;99.90;;;;;;4992857;28;20042;-55
2021/12/04 00:35:17;;;;;;;7.55;4.18;;;3.50;99.90;;;;;;4993303;28;20030;-52
2021/12/04 00:51:10;;;;;;;23.88;13.57;;;3.50;99.90;;;;;;4992848;28;20061;-50
2021/12/04 00:53:36;;;;;;;11.23;4.50;;;3.60;99.90;;;;;;4992992;28;20408;-54
2021/12/04 00:56:01;;;;;;;8.05;3.22;;;3.60;99.90;;;;;;4993035;28;20022;-56
2021/12/04 00:58:27;;;;;;;3.88;3.40;;;3.60;99.90;;;;;;5007779;28;20134;-55
2021/12/04 01:00:52;;;;;;;7.72;4.40;;;3.60;99.90;;;;;;4992608;28;20041;-51
2021/12/04 01:03:18;;;;;;;6.80;4.35;;;3.70;99.90;;;;;;4992924;28;20022;-54
2021/12/04 01:05:44;;;;;;;5.95;3.80;;;3.60;99.90;;;;;;4992656;28;20030;-50
2021/12/04 01:08:09;;;;;;;6.40;3.83;;;3.70;99.90;;;;;;4992579;28;20125;-55
2021/12/04 01:10:36;;;;;;;8.60;4.75;;;3.70;99.90;;;;;;4994011;28;20436;-51
2021/12/04 01:13:04;;;;;;;9.63;4.57;;;3.70;99.90;;;;;;4992801;28;20026;-49
2021/12/04 01:15:30;;;;;;;6.90;4.25;;;3.70;99.90;;;;;;4992629;28;20058;-55
2021/12/04 01:17:56;;;;;;;7.47;4.38;;;3.60;99.90;;;;;;4992673;28;20104;-56
2021/12/04 01:20:21;;;;;;;4.75;3.90;;;3.60;99.90;;;;;;4992255;28;20036;-55
2021/12/04 01:22:47;;;;;;;4.53;3.88;;;3.60;99.90;;;;;;4992693;28;20022;-52
2021/12/04 01:25:12;;;;;;;4.35;3.83;;;3.60;99.90;;;;;;4992624;28;20030;-53
2021/12/04 01:27:38;;;;;;;8.13;4.55;;;3.60;99.90;;;;;;4992692;28;20109;-55
2021/12/04 01:30:06;;;;;;;4.63;3.83;;;3.50;99.90;;;;;;4992686;28;20018;-55
2021/12/04 01:32:31;;;;;;;6.15;4.43;;;3.40;99.90;;;;;;4992496;28;20034;-54
2021/12/04 01:34:57;;;;;;;6.03;3.90;;;3.40;99.90;;;;;;4992767;28;20113;-55
2021/12/04 01:37:23;;;;;;;8.32;4.10;;;3.30;99.90;;;;;;4992737;28;20022;-54
2021/12/04 01:39:48;;;;;;;7.60;3.92;;;3.30;99.90;;;;;;4992275;28;20042;-53
2021/12/04 01:42:18;;;;;;;5.25;4.03;;;3.20;99.90;;;;;;4992354;28;20023;-53
2021/12/04 01:44:46;;;;;;;5.35;4.00;;;3.20;99.90;;;;;;4992559;28;20026;-52
2021/12/04 01:47:16;;;;;;;7.75;3.63;;;3.20;99.90;;;;;;5007358;28;20033;-51
2021/12/04 01:49:43;;;;;;;5.32;3.47;;;3.10;99.90;;;;;;4992185;28;20018;-53
2021/12/04 01:52:09;;;;;;;8.57;3.83;;;3.00;99.90;;;;;;4992370;28;20026;-53
2021/12/04 01:54:36;;;;;;;6.55;3.72;;;3.10;99.90;;;;;;4992139;28;20034;-53
2021/12/04 01:57:03;;;;;;;5.32;3.58;;;3.00;99.90;;;;;;4992282;28;20029;-53
2021/12/04 01:59:29;;;;;;;4.57;3.80;;;2.80;99.90;;;;;;4991849;28;20588;-50
2021/12/04 02:01:56;;;;;;;8.52;3.75;;;2.80;99.90;;;;;;4992118;28;20053;-56
2021/12/04 02:04:21;;;;;;;5.38;3.65;;;2.80;99.90;;;;;;4992246;28;20027;-54
2021/12/04 02:06:47;;;;;;;5.15;4.30;;;2.60;99.90;;;;;;4992319;28;20035;-53
2021/12/04 02:09:12;;;;;;;5.95;3.72;;;2.60;99.90;;;;;;4991960;28;20496;-54
2021/12/04 02:11:38;;;;;;;6.65;4.45;;;2.50;99.90;;;;;;4992182;28;20034;-54
2021/12/04 02:14:04;;;;;;;8.02;4.35;;;2.30;99.90;;;;;;4992254;28;20032;-54
2021/12/04 02:16:29;;;;;;;6.65;3.92;;;2.20;99.90;;;;;;5007215;28;20057;-54
2021/12/04 02:18:55;;;;;;;4.95;4.45;;;2.20;99.90;;;;;;4995664;28;20026;-54
2021/12/04 02:21:21;;;;;;;5.97;3.55;;;2.20;99.90;;;;;;4995650;28;20030;-55
2021/12/04 02:23:46;;;;;;;7.10;3.65;;;2.20;99.90;;;;;;5010912;28;20400;-53
2021/12/04 02:26:13;;;;;;;3.67;3.35;;;2.10;99.90;;;;;;4995860;28;20089;-50
2021/12/04 02:28:42;;;;;;;9.10;5.18;;;2.10;99.90;;;;;;4995721;28;20030;-55
2021/12/04 02:31:07;;;;;;;8.27;4.60;;;2.10;99.90;;;;;;4995415;28;20062;-55
2021/12/04 02:33:33;;;;;;;5.53;3.95;;;2.10;99.90;;;;;;4995338;28;20455;-55
2021/12/04 02:35:58;;;;;;;5.65;4.13;;;2.10;99.90;;;;;;4995638;28;20056;-54
2021/12/04 02:38:26;;;;;;;11.70;4.25;;;2.10;99.90;;;;;;4995437;28;20507;-55
2021/12/04 02:41:38;;;;;;;7.05;4.30;;;2.10;99.90;;;;;;4995098;28;20033;-53
2021/12/04 02:44:03;;;;;;;5.88;4.30;;;2.20;99.90;;;;;;4994845;28;20031;-53
2021/12/04 02:46:33;;;;;;;5.88;4.32;;;2.20;99.90;;;;;;4995227;28;20053;-52
2021/12/04 02:49:00;;;;;;;5.35;4.60;;;2.30;99.90;;;;;;4995405;28;20026;-54
2021/12/04 02:51:26;;;;;;;6.22;4.78;;;2.30;99.90;;;;;;4994958;28;20550;-56
2021/12/04 02:53:51;;;;;;;5.60;4.63;;;2.30;99.90;;;;;;4995151;28;20038;-55
2021/12/04 02:56:17;;;;;;;8.88;4.43;;;2.20;99.90;;;;;;4994932;28;20078;-53
2021/12/04 02:58:49;;;;;;;6.03;4.57;;;2.20;99.90;;;;;;4995082;28;20084;-54
2021/12/04 03:01:15;;;;;;;7.72;4.22;;;2.20;99.90;;;;;;4994780;28;20117;-51
2021/12/04 03:03:41;;;;;;;9.05;4.38;;;2.20;99.90;;;;;;4994986;28;20065;-52
2021/12/04 03:06:07;;;;;;;5.75;4.82;;;2.10;99.90;;;;;;4995223;28;20477;-57
2021/12/04 03:08:33;;;;;;;6.93;4.53;;;2.10;99.90;;;;;;4994897;28;20102;-55
2021/12/04 03:10:58;;;;;;;10.70;4.25;;;2.10;99.90;;;;;;4994591;28;20022;-54
2021/12/04 03:13:24;;;;;;;8.20;4.82;;;2.10;99.90;;;;;;5009959;28;20032;-54
2021/12/04 03:15:57;;;;;;;5.90;4.68;;;2.10;99.90;;;;;;5009738;28;20027;-51
2021/12/04 03:18:23;;;;;;;7.00;4.45;;;2.20;99.90;;;;;;4995180;28;20095;-55
2021/12/04 03:20:51;;;;;;;4.90;3.90;;;2.10;99.90;;;;;;4994436;28;20468;-52
2021/12/04 03:23:25;;;;;;;5.45;3.70;;;2.10;99.90;;;;;;4994755;28;20022;-54
2021/12/04 03:25:53;;;;;;;5.38;4.47;;;2.10;99.90;;;;;;4994612;28;20030;-52
2021/12/04 03:28:19;;;;;;;9.52;4.95;;;2.10;99.90;;;;;;4994714;28;20543;-52
2021/12/04 03:30:53;;;;;;;5.82;4.15;;;2.10;99.90;;;;;;4994479;28;20033;-51
2021/12/04 03:41:12;;;;;;;8.25;4.93;;;1.90;99.90;;;;;;4994297;28;20231;-55
2021/12/04 03:43:38;;;;;;;7.15;4.72;;;2.00;99.90;;;;;;4994444;28;20567;-53
2021/12/04 03:46:06;;;;;;;12.38;6.85;;;2.00;99.90;;;;;;4994407;28;20026;-55
2021/12/04 03:51:05;;;;;;;8.15;5.53;;;2.00;99.90;;;;;;4994081;28;20539;-56
2021/12/04 03:53:32;;;;;;;7.95;5.32;;;1.90;99.90;;;;;;4994185;28;20089;-54
2021/12/04 03:55:58;;;;;;;8.60;6.00;;;2.00;99.90;;;;;;5009254;28;20062;-54
2021/12/04 03:58:24;;;;;;;9.43;7.03;;;1.90;99.90;;;;;;4994089;28;20441;-55
2021/12/04 04:00:50;;;;;;;9.20;6.18;;;1.90;99.90;;;;;;5008975;28;20041;-51
2021/12/04 04:03:16;;;;;;;9.40;6.30;;;1.90;99.90;;;;;;4994109;28;20096;-54
2021/12/04 04:05:42;;;;;;;11.38;6.18;;;1.90;99.90;;;;;;4993894;28;20022;-53
2021/12/04 04:08:11;;;;;;;10.02;6.22;;;1.90;99.90;;;;;;4993952;28;20037;-54
2021/12/04 04:10:36;;;;;;;9.57;6.53;;;1.90;99.90;;;;;;4993655;28;20022;-53
2021/12/04 04:13:02;;;;;;;11.38;6.15;;;1.90;99.90;;;;;;4993960;28;20506;-52
2021/12/04 04:15:27;;;;;;;10.32;6.78;;;1.90;99.90;;;;;;4993867;28;20030;-52
2021/12/04 04:17:53;;;;;;;8.90;5.70;;;1.90;99.90;;;;;;4993728;28;20026;-55
2021/12/04 04:20:21;;;;;;;8.20;6.07;;;1.90;99.90;;;;;;4993274;28;20026;-54
2021/12/04 04:22:48;;;;;;;11.75;6.20;;;1.90;99.90;;;;;;4993713;28;20449;-54
2021/12/04 04:25:15;;;;;;;6.85;5.75;;;1.90;99.90;;;;;;4993247;28;20030;-52
2021/12/04 04:27:41;;;;;;;7.82;6.00;;;1.90;99.90;;;;;;4993489;28;20027;-55
2021/12/04 04:30:12;;;;;;;7.63;6.22;;;1.90;99.90;;;;;;4993155;28;20033;-52
2021/12/04 04:32:38;;;;;;;7.53;5.72;;;1.90;99.90;;;;;;4992970;28;20105;-52
2021/12/04 04:35:14;;;;;;;8.20;6.55;;;2.00;99.90;;;;;;4993346;28;20149;-51
2021/12/04 05:02:03;;;;;;;7.72;6.63;;;2.40;99.90;;;;;;4993115;28;20484;-54
2021/12/04 05:15:14;;;;;;;7.57;6.22;;;2.60;99.90;;;;;;4992804;28;20031;-54
2021/12/04 05:20:21;;;;;;;8.33;7.07;;;2.70;99.90;;;;;;4992336;28;20030;-53
2021/12/04 05:22:47;;;;;;;8.48;7.20;;;2.70;99.90;;;;;;4992694;28;20022;-53
2021/12/04 05:25:13;;;;;;;8.20;6.75;;;2.70;99.90;;;;;;4992417;28;20034;-55
2021/12/04 05:27:38;;;;;;;7.13;6.25;;;2.70;99.90;;;;;;4992520;28;20075;-53
2021/12/04 05:30:06;;;;;;;9.85;6.93;;;2.60;99.90;;;;;;4992224;28;20033;-54
2021/12/04 05:32:32;;;;;;;10.07;7.30;;;2.50;99.90;;;;;;4992055;28;20102;-54
2021/12/04 05:34:57;;;;;;;8.52;7.50;;;2.50;99.90;;;;;;4992333;28;20088;-54
2021/12/04 05:37:23;;;;;;;9.35;7.40;;;2.50;99.90;;;;;;4992313;28;20030;-52
2021/12/04 05:39:48;;;;;;;8.80;6.65;;;2.50;99.90;;;;;;4992044;28;20041;-50
2021/12/04 05:42:14;;;;;;;7.30;6.57;;;2.40;99.90;;;;;;4992307;28;20392;-50
2021/12/04 05:44:41;;;;;;;12.85;7.00;;;2.40;99.90;;;;;;5007204;28;20402;-50
2021/12/04 05:47:14;;;;;;;10.43;6.53;;;2.40;99.90;;;;;;4992303;28;20053;-50
2021/12/04 05:52:51;;;;;;;8.13;7.00;;;2.50;99.90;;;;;;4993615;28;20042;-53
2021/12/04 05:55:15;;;;;;;10.55;7.53;;;2.60;99.90;;;;;;4997140;28;20041;-55
2021/12/04 05:57:40;;;;;;;9.25;7.53;;;2.60;99.90;;;;;;4997104;28;20026;-52
2021/12/04 06:00:19;;;;;;;10.93;6.60;;;2.70;99.90;;;;;;4995992;28;20026;-51
2021/12/04 06:02:45;;;;;;;9.48;6.93;;;2.70;99.90;;;;;;4996117;28;20069;-52
2021/12/04 06:05:12;;;;;;;9.85;7.45;;;2.70;99.90;;;;;;4996087;28;20120;-51
2021/12/04 06:07:38;;;;;;;10.50;6.82;;;2.70;99.90;;;;;;4996235;28;20019;-53
2021/12/04 06:10:05;;;;;;;8.82;6.38;;;2.70;99.90;;;;;;4995948;28;20034;-52
2021/12/04 06:12:31;;;;;;;10.55;7.07;;;2.70;99.90;;;;;;5010907;28;20046;-54
2021/12/04 06:14:56;;;;;;;9.68;7.13;;;2.70;99.90;;;;;;4996270;28;20068;-51
2021/12/04 06:17:23;;;;;;;8.85;6.55;;;2.70;99.90;;;;;;4996038;28;20031;-51
2021/12/04 06:22:40;;;;;;;8.27;6.65;;;2.70;99.90;;;;;;4995858;28;20057;-53
2021/12/04 06:25:08;;;;;;;8.32;6.63;;;2.80;99.90;;;;;;4995645;28;20038;-53
2021/12/04 06:27:34;;;;;;;12.55;7.45;;;2.80;99.90;;;;;;4995840;28;20105;-53
2021/12/04 06:30:01;;;;;;;11.35;7.70;;;2.90;99.90;;;;;;5010560;28;20034;-53
2021/12/04 06:32:26;;;;;;;10.30;7.78;;;3.00;99.90;;;;;;4995190;28;20096;-53
2021/12/04 06:34:52;;;;;;;10.52;7.07;;;3.10;99.90;;;;;;4995496;28;20439;-52
2021/12/04 06:37:18;;;;;;;10.30;7.63;;;3.10;99.90;;;;;;4995597;28;20026;-55
2021/12/04 06:39:44;;;;;;;9.35;7.18;;;3.00;99.90;;;;;;4995218;28;20026;-51
2021/12/04 06:42:09;;;;;;;12.82;7.55;;;2.90;99.90;;;;;;4995490;28;20477;-54
2021/12/04 06:44:35;;;;;;;9.80;8.23;;;3.00;99.90;;;;;;4995354;28;20029;-52
2021/12/04 06:47:00;;;;;;;13.05;8.50;;;3.00;99.90;;;;;;4995436;28;20125;-54
2021/12/04 06:49:31;;;;;;;19.42;9.90;;;3.00;99.90;;;;;;4995052;28;20023;-51
2021/12/04 06:52:00;;;;;;;16.88;9.88;;;2.90;99.90;;;;;;4995618;28;20072;-54
2021/12/04 06:54:29;;;;;;;18.40;10.63;;;3.00;99.90;;;;;;4995452;28;20030;-52
2021/12/04 06:56:55;;;;;;;13.70;11.15;;;2.90;99.90;;;;;;4995203;28;20018;-54
2021/12/04 06:59:26;;;;;;;15.35;10.10;;;2.80;99.90;;;;;;4994841;28;20033;-53
2021/12/04 07:01:51;;;;;;;15.95;10.18;;;2.80;99.90;;;;;;4995071;28;20392;-55
2021/12/04 07:04:18;;;;;;;17.48;10.48;;;2.80;99.90;;;;;;5009664;28;20022;-50
2021/12/04 07:06:45;;;;;;;16.75;10.80;;;2.80;99.90;;;;;;4994962;28;20049;-52
2021/12/04 07:09:11;;;;;;;18.42;11.68;;;2.80;99.90;;;;;;5011793;22;20049;-45
2021/12/04 07:11:37;;;;;;;18.27;11.73;;;2.90;99.90;;;;;;5014481;28;20034;-46
2021/12/04 07:14:03;;;;;;;18.48;12.23;;;2.80;99.90;;;;;;5014628;28;20026;-46
2021/12/04 07:16:29;;;;;;;17.40;11.98;;;2.80;99.90;;;;;;5014474;28;20030;-43
2021/12/04 07:18:54;;;;;;;13.60;11.07;;;2.70;99.90;;;;;;5014230;28;20030;-49
2021/12/04 07:21:20;;;;;;;13.73;10.88;;;2.60;99.90;;;;;;5012766;28;20025;-47
2021/12/04 07:23:45;;;;;;;15.98;10.55;;;2.60;99.90;;;;;;5014256;28;20026;-46
2021/12/04 07:26:11;;;;;;;17.73;11.20;;;2.50;99.90;;;;;;5014577;28;20014;-49
2021/12/04 07:28:37;;;;;;;14.85;10.32;;;2.50;99.90;;;;;;5014193;28;20022;-49
2021/12/04 07:31:04;;;;;;;17.02;10.88;;;2.60;99.90;;;;;;5014056;28;20083;-49
2021/12/04 07:33:29;;;;;;;14.98;11.88;;;2.60;99.90;;;;;;5013960;28;20033;-47
2021/12/04 07:35:57;;;;;;;19.50;11.15;;;2.50;99.90;;;;;;5014109;28;20476;-51
2021/12/04 07:38:23;;;;;;;18.00;11.35;;;2.50;99.90;;;;;;5014018;28;20028;-48
2021/12/04 07:40:49;;;;;;;16.23;10.82;;;2.50;99.90;;;;;;5013366;28;20030;-48
2021/12/04 07:43:14;;;;;;;20.70;11.48;;;2.30;99.90;;;;;;5013851;28;20030;-47
2021/12/04 07:45:41;;;;;;;19.92;12.20;;;2.30;99.90;;;;;;5014060;28;20018;-44
2021/12/04 07:48:06;;;;;;;17.92;12.07;;;2.30;99.90;;;;;;5013717;28;20022;-46
2021/12/04 07:50:33;;;;;;;18.65;11.38;;;2.30;99.90;;;;;;5013348;28;20487;-49
2021/12/04 07:52:58;;;;;;;22.08;12.35;;;2.40;99.90;;;;;;5013722;28;20068;-46
2021/12/04 07:55:26;;;;;;;19.50;11.45;;;2.50;99.90;;;;;;5013575;28;20431;-48
2021/12/04 07:57:52;;;;;;;14.27;10.02;;;2.50;99.90;;;;;;5013619;28;20072;-46
2021/12/04 08:00:19;;;;;;;17.02;12.07;;;2.50;99.90;;;;;;5013450;28;20117;-46
2021/12/04 08:02:45;;;;;;;20.60;10.70;;;2.50;99.90;;;;;;5013459;28;20065;-46
2021/12/04 08:05:11;;;;;;;19.50;11.45;;;2.50;99.90;;;;;;5013478;28;20505;-47
2021/12/04 08:07:38;;;;;;;16.10;11.32;;;2.40;99.90;;;;;;5012262;28;20447;-48
2021/12/04 08:10:05;;;;;;;18.67;11.55;;;2.50;99.90;;;;;;5013026;28;20026;-45
2021/12/04 08:12:30;;;;;;;16.63;11.73;;;2.50;99.90;;;;;;5013321;28;20029;-44
2021/12/04 08:14:56;;;;;;;17.52;11.65;;;2.60;99.90;;;;;;5012774;28;20026;-49
2021/12/04 08:17:21;;;;;;;14.93;11.00;;;2.50;99.90;;;;;;5013421;28;20030;-48
2021/12/04 08:19:47;;;;;;;16.63;11.00;;;2.60;99.90;;;;;;5012987;28;20022;-45
2021/12/04 08:22:12;;;;;;;17.60;11.30;;;2.60;99.90;;;;;;5013395;28;20022;-45
2021/12/04 08:24:40;;;;;;;17.80;11.30;;;2.70;99.90;;;;;;5013183;28;20052;-45
2021/12/04 08:27:08;;;;;;;17.02;11.38;;;2.70;99.90;;;;;;5013056;28;20026;-46
2021/12/04 08:29:33;;;;;;;15.27;10.48;;;2.70;99.90;;;;;;5013150;28;20426;-44
2021/12/04 08:31:59;;;;;;;15.02;11.00;;;2.80;99.90;;;;;;5013026;28;20033;-46
2021/12/04 08:34:24;;;;;;;14.93;10.40;;;2.80;99.90;;;;;;5012555;28;20506;-47
2021/12/04 08:36:52;;;;;;;17.98;10.23;;;2.80;99.90;;;;;;5012877;28;20022;-47
2021/12/04 08:39:18;;;;;;;15.18;11.02;;;2.90;99.90;;;;;;5012793;28;20032;-47
2021/12/04 08:41:44;;;;;;;17.13;10.77;;;2.80;99.90;;;;;;5013268;28;20044;-46
2021/12/04 08:44:10;;;;;;;16.77;10.60;;;2.80;99.90;;;;;;5012888;28;20085;-44
2021/12/04 08:46:38;;;;;;;15.38;10.57;;;2.80;99.90;;;;;;5013002;28;20025;-46
2021/12/04 08:49:05;;;;;;;21.83;11.95;;;2.70;99.90;;;;;;5011056;28;20026;-49
2021/12/04 08:51:32;;;;;;;17.08;11.68;;;2.70;99.90;;;;;;5012524;28;20403;-48
2021/12/04 08:53:58;;;;;;;19.08;10.82;;;2.70;99.90;;;;;;5012638;28;20101;-46
2021/12/04 08:56:24;;;;;;;17.95;10.68;;;2.70;99.90;;;;;;5012890;28;20463;-48
2021/12/04 08:58:50;;;;;;;14.48;11.05;;;2.80;99.90;;;;;;5012671;28;20022;-42
2021/12/04 09:01:24;;;;;;;14.77;10.68;;;2.80;99.90;;;;;;5012050;28;20050;-45
2021/12/04 09:03:55;;;;;;;15.98;10.32;;;2.80;99.90;;;;;;5012897;28;20052;-44
2021/12/04 09:06:22;;;;;;;17.48;9.80;;;2.90;99.90;;;;;;5014101;28;20025;-44
2021/12/04 09:08:48;;;;;;;17.35;11.60;;;3.00;99.90;;;;;;5012483;28;20030;-43
2021/12/04 09:11:20;;;;;;;14.50;9.63;;;3.00;99.90;;;;;;5012102;28;20103;-46
2021/12/04 09:13:47;;;;;;;14.45;9.40;;;3.10;99.90;;;;;;5012376;28;20130;-45
2021/12/04 09:16:15;;;;;;;14.63;10.52;;;3.00;99.90;;;;;;5012143;28;20030;-48
2021/12/04 09:18:40;;;;;;;15.63;10.05;;;3.00;99.90;;;;;;5012401;28;20399;-44
2021/12/04 09:21:06;;;;;;;16.77;9.88;;;2.90;99.90;;;;;;5011889;28;20151;-41
2021/12/04 09:23:36;;;;;;;14.90;9.95;;;2.90;99.90;;;;;;5012447;28;20040;-45
2021/12/04 09:26:03;;;;;;;12.65;9.93;;;2.90;99.90;;;;;;5012083;28;20046;-44
2021/12/04 09:28:53;;;;;;;14.45;8.80;;;3.00;99.90;;;;;;5012146;28;20022;-49
2021/12/04 09:31:31;;;;;;;15.27;10.00;;;3.00;99.90;;;;;;5011762;28;20472;-44
2021/12/04 10:18:13;;;;;;;11.95;7.82;;;3.40;99.90;;;;;;5011853;28;20092;-46
2021/12/04 10:34:32;;;;;;;13.40;8.25;;;3.60;99.90;;;;;;5012435;28;20407;-45
2021/12/04 10:37:09;;;;;;;11.57;8.88;;;3.60;99.90;;;;;;5011266;28;20033;-48
2021/12/04 10:39:35;;;;;;;11.52;8.32;;;3.70;99.90;;;;;;5014336;28;20535;-50
2021/12/04 10:42:04;;;;;;;12.18;8.45;;;3.80;99.90;;;;;;5015257;28;20030;-49
2021/12/04 10:44:31;;;;;;;13.18;8.85;;;3.90;99.90;;;;;;5014863;28;20014;-48
2021/12/04 10:47:00;;;;;;;13.55;9.25;;;3.90;99.90;;;;;;5014957;28;20022;-46
2021/12/04 10:49:37;;;;;;;13.02;8.50;;;4.00;99.90;;;;;;5014684;28;20032;-47
2021/12/04 10:52:05;;;;;;;11.85;9.00;;;3.90;99.90;;;;;;5014931;28;20026;-48
2021/12/04 10:54:38;;;;;;;12.18;8.93;;;3.90;99.90;;;;;;5014830;28;20438;-48
2021/12/04 10:57:38;;;;;;;14.00;8.57;;;3.90;99.90;;;;;;5015268;28;20026;-49
2021/12/04 11:00:19;;;;;;;11.50;8.93;;;3.90;99.90;;;;;;5014585;28;20037;-49
2021/12/04 11:02:58;;;;;;;10.60;8.38;;;3.90;99.90;;;;;;5014835;28;20026;-48
2021/12/04 11:05:47;;;;;;;12.48;8.32;;;4.00;99.90;;;;;;5014841;28;20026;-49
2021/12/04 11:28:08;;;;;;;15.20;9.93;;;4.20;99.90;;;;;;5014322;28;20339;-46
2021/12/04 11:36:38;;;;;;;10.60;8.27;;;4.20;99.90;;;;;;5006263;28;20033;-46
2021/12/04 11:44:50;;;;;;;11.82;8.52;;;4.30;99.90;;;;;;5013768;28;20064;-49
2021/12/04 11:47:16;;;;;;;13.52;8.75;;;4.40;99.90;;;;;;5013633;28;20391;-46
2021/12/04 11:49:41;;;;;;;13.25;9.38;;;4.40;99.90;;;;;;5008885;28;20018;-44
2021/12/04 11:52:17;;;;;;;13.45;8.85;;;4.40;99.90;;;;;;5013695;28;20034;-47
2021/12/04 11:54:50;;;;;;;13.13;9.00;;;4.40;99.90;;;;;;5013117;28;20034;-45
2021/12/04 11:57:28;;;;;;;13.73;9.02;;;4.50;99.90;;;;;;5013924;28;20083;-47
2021/12/04 11:59:54;;;;;;;14.73;9.15;;;4.50;99.90;;;;;;5013789;28;20033;-47
2021/12/04 12:02:24;;;;;;;13.23;9.93;;;4.50;99.90;;;;;;5014122;28;20434;-52
2021/12/04 12:04:52;;;;;;;13.57;9.75;;;4.40;99.90;;;;;;5001947;28;20033;-54
2021/12/04 12:07:24;;;;;;;13.77;9.65;;;4.30;99.90;;;;;;5013834;28;20026;-49
2021/12/04 12:10:19;;;;;;;17.10;10.95;;;4.30;99.90;;;;;;5022147;28;20518;-50
2021/12/04 12:12:47;;;;;;;15.57;11.38;;;4.40;99.90;;;;;;5012656;28;20048;-48
2021/12/04 12:15:32;;;;;;;118.88;62.53;;;4.30;99.90;;;;;;5021772;28;20022;-47
2021/12/04 12:18:10;;;;;;;22.15;13.65;;;4.30;99.90;;;;;;5012016;28;20057;-44
2021/12/04 12:20:43;;;;;;;15.35;9.60;;;4.30;99.90;;;;;;5024666;28;20026;-45
2021/12/04 12:23:12;;;;;;;14.05;10.23;;;4.30;99.90;;;;;;5032166;28;20159;-45
2021/12/04 12:37:26;;;;;;;13.50;10.02;;;4.40;99.90;;;;;;5016492;28;20033;-45
2021/12/04 12:40:06;;;;;;;13.95;9.60;;;4.20;99.90;;;;;;5012160;28;20093;-57
2021/12/04 12:42:36;;;;;;;11.80;9.32;;;4.10;99.90;;;;;;5011810;28;20022;-54
2021/12/04 12:45:23;;;;;;;15.65;10.50;;;4.10;99.90;;;;;;5011806;28;20057;-51
2021/12/04 12:47:51;;;;;;;14.25;10.05;;;4.10;99.90;;;;;;5011325;28;20407;-53
2021/12/04 12:50:40;;;;;;;13.50;10.10;;;4.20;99.90;;;;;;5030915;28;20021;-54
2021/12/04 12:53:16;;;;;;;16.95;11.05;;;4.20;99.90;;;;;;5030272;28;20021;-51
2021/12/04 12:55:44;;;;;;;15.35;10.27;;;4.30;99.90;;;;;;5016954;28;20029;-53
2021/12/04 12:58:15;;;;;;;16.33;10.60;;;4.30;99.90;;;;;;5021477;28;20095;-51
2021/12/04 13:12:11;;;;;;;12.23;9.25;;;4.30;99.90;;;;;;5070050;23;20310;-48
2021/12/04 13:14:42;;;;;;;12.68;9.00;;;4.30;99.90;;;;;;5051156;28;20391;-49
2021/12/04 13:17:14;;;;;;;12.20;9.85;;;4.30;99.90;;;;;;5050302;28;20025;-50
2021/12/04 13:19:45;;;;;;;15.30;10.57;;;4.30;99.90;;;;;;5035599;28;20130;-46
2021/12/04 13:22:17;;;;;;;14.98;9.88;;;4.40;99.90;;;;;;5031004;28;20045;-50
2021/12/04 13:24:45;;;;;;;12.98;9.38;;;4.40;99.90;;;;;;5031900;28;20026;-48
2021/12/04 13:29:48;;;;;;;80.13;46.38;;;4.40;99.90;;;;;;5031579;28;20022;-48
2021/12/04 13:32:16;;;;;;;25.35;18.02;;;4.30;99.90;;;;;;5030313;28;20033;-48
2021/12/04 13:34:43;;;;;;;16.73;10.45;;;4.30;99.90;;;;;;5031542;28;20032;-49
2021/12/04 13:37:11;;;;;;;11.85;8.68;;;4.30;99.90;;;;;;5030939;28;20062;-50
2021/12/04 13:39:40;;;;;;;13.80;9.57;;;4.30;99.90;;;;;;5029998;28;20642;-48
2021/12/04 13:42:06;;;;;;;13.40;9.90;;;4.30;99.90;;;;;;5031445;28;20363;-51
2021/12/04 13:44:34;;;;;;;12.10;9.00;;;4.30;99.90;;;;;;5031387;28;20113;-47
2021/12/04 13:47:06;;;;;;;11.07;8.77;;;4.30;99.90;;;;;;5031196;28;20079;-46
2021/12/04 13:49:37;;;;;;;12.85;8.27;;;4.40;99.90;;;;;;5031044;28;20029;-48
2021/12/04 13:52:12;;;;;;;13.98;9.63;;;4.30;99.90;;;;;;5031619;28;20029;-48
2021/12/04 13:54:42;;;;;;;13.07;9.52;;;4.40;99.90;;;;;;5031453;28;20399;-53
2021/12/04 13:57:13;;;;;;;13.27;10.13;;;4.50;99.90;;;;;;5030135;28;20029;-47
2021/12/04 13:59:39;;;;;;;16.75;9.40;;;4.50;99.90;;;;;;5031153;28;20026;-49
2021/12/04 14:02:05;;;;;;;12.50;7.68;;;4.50;99.90;;;;;;5031703;28;20387;-48
2021/12/04 14:04:31;;;;;;;10.50;7.95;;;4.60;99.90;;;;;;5030362;28;20033;-47
2021/12/04 14:06:59;;;;;;;10.05;7.63;;;4.60;99.90;;;;;;5031274;28;20471;-52
2021/12/04 14:09:37;;;;;;;10.88;8.15;;;4.60;99.90;;;;;;5031189;28;20036;-49
2021/12/04 14:12:05;;;;;;;10.35;7.85;;;4.70;99.90;;;;;;5031394;28;20048;-50
2021/12/04 14:14:32;;;;;;;9.32;7.25;;;4.60;99.90;;;;;;5034179;28;20087;-51
2021/12/04 14:17:09;;;;;;;8.18;5.88;;;4.60;99.90;;;;;;5034459;28;20061;-51
2021/12/04 14:19:36;;;;;;;7.38;6.30;;;4.60;99.90;;;;;;5035130;28;20032;-53
2021/12/04 14:22:02;;;;;;;8.40;6.70;;;4.70;99.90;;;;;;5017570;28;20032;-48
2021/12/04 14:24:30;;;;;;;8.05;6.53;;;4.50;99.90;;;;;;5035200;28;20026;-48
2021/12/04 14:26:58;;;;;;;8.23;6.65;;;4.50;99.90;;;;;;5034112;28;20084;-49
2021/12/04 14:29:26;;;;;;;9.95;7.35;;;4.40;99.90;;;;;;5035076;28;20022;-50
2021/12/04 14:31:52;;;;;;;10.27;6.65;;;4.50;99.90;;;;;;5035659;28;20055;-49
2021/12/04 14:34:20;;;;;;;8.05;6.35;;;4.50;99.90;;;;;;5035351;28;20026;-48
2021/12/04 14:36:46;;;;;;;7.47;6.50;;;4.60;99.90;;;;;;5033224;28;20036;-49
2021/12/04 14:39:22;;;;;;;8.82;7.38;;;4.60;99.90;;;;;;5034654;28;20030;-47
2021/12/04 14:41:47;;;;;;;11.48;9.20;;;4.70;99.90;;;;;;5034984;28;20491;-47
2021/12/04 14:44:13;;;;;;;10.50;7.15;;;4.60;99.90;;;;;;5034797;28;20029;-49
2021/12/04 14:46:38;;;;;;;9.15;7.60;;;4.50;99.90;;;;;;5034394;28;20391;-51
2021/12/04 14:49:09;;;;;;;7.85;6.25;;;4.50;99.90;;;;;;5034658;28;20022;-46
2021/12/04 14:51:35;;;;;;;14.43;10.25;;;4.50;99.90;;;;;;5034938;28;20429;-50
2021/12/04 14:54:01;;;;;;;103.85;54.08;;;4.60;99.90;;;;;;5034495;28;20569;-48
2021/12/04 14:56:29;;;;;;;10.38;8.13;;;4.60;99.90;;;;;;5034759;28;20037;-47
2021/12/04 14:58:55;;;;;;;10.15;7.28;;;4.70;99.90;;;;;;5034593;28;20049;-47
2021/12/04 15:01:26;;;;;;;14.13;8.30;;;4.90;99.90;;;;;;5034603;28;20064;-48
2021/12/04 15:03:59;;;;;;;11.82;8.48;;;5.00;99.90;;;;;;5034905;28;20021;-49
2021/12/04 15:06:26;;;;;;;15.95;10.55;;;5.00;99.90;;;;;;5035920;28;20450;-49
2021/12/04 15:08:58;;;;;;;14.55;10.77;;;5.00;99.90;;;;;;5035439;28;20390;-48
2021/12/04 15:11:29;;;;;;;17.50;11.43;;;4.80;99.90;;;;;;5034845;28;20068;-51
2021/12/04 15:14:05;;;;;;;18.85;12.15;;;4.70;99.90;;;;;;5036065;28;20407;-47
2021/12/04 15:16:46;;;;;;;14.50;10.73;;;4.80;99.90;;;;;;5035383;28;20034;-48
2021/12/04 15:19:21;;;;;;;18.60;12.77;;;4.80;99.90;;;;;;5033057;28;20053;-50
2021/12/04 15:21:53;;;;;;;19.20;12.20;;;4.80;99.90;;;;;;5034270;28;20027;-50
2021/12/04 15:24:28;;;;;;;17.48;11.95;;;4.80;99.90;;;;;;5033999;28;20029;-49
2021/12/04 15:27:01;;;;;;;20.17;13.48;;;4.90;99.90;;;;;;5034022;28;20022;-51
2021/12/04 15:29:29;;;;;;;20.55;12.90;;;4.80;99.90;;;;;;5033805;28;20025;-47
2021/12/04 15:32:00;;;;;;;20.50;12.60;;;4.90;99.90;;;;;;5032734;28;20044;-52
2021/12/04 15:34:40;;;;;;;19.33;12.77;;;4.80;99.90;;;;;;5034599;28;20044;-48
2021/12/04 15:37:07;;;;;;;19.63;13.20;;;4.80;99.90;;;;;;5032805;28;20052;-48
2021/12/04 15:39:40;;;;;;;19.48;13.45;;;4.70;99.90;;;;;;5033824;28;20028;-48
2021/12/04 15:55:07;;;;;;;18.63;12.18;;;4.70;99.90;;;;;;5033269;28;20044;-46
2021/12/04 15:57:35;;;;;;;19.27;12.70;;;4.70;99.90;;;;;;5033611;28;20034;-46
2021/12/04 16:00:09;;;;;;;19.52;12.13;;;4.70;99.90;;;;;;5033045;28;20052;-48
2021/12/04 16:02:39;;;;;;;17.73;12.32;;;4.60;99.90;;;;;;5033586;28;20044;-48
2021/12/04 16:05:13;;;;;;;20.88;11.82;;;4.60;99.90;;;;;;5033259;28;20022;-47
2021/12/04 16:07:39;;;;;;;19.88;13.93;;;4.60;99.90;;;;;;5033114;28;20025;-49
2021/12/04 16:10:20;;;;;;;21.75;13.35;;;4.60;99.90;;;;;;5031030;28;20035;-50